sensor_id;sensor_type;location;lat;lon;timestamp;pressure;altitude;pressure_sealevel;temperature;humidity
69955;BME280;57279;55.912;37.490;2022-10-16T00:00:35;100494.25;;;6.69;59.72
69955;BME280;57279;55.912;37.490;2022-10-16T00:03:01;100495.47;;;6.66;60.55
69955;BME280;57279;55.912;37.490;2022-10-16T00:05:27;100499.81;;;6.60;59.48
69955;BME280;57279;55.912;37.490;2022-10-16T00:07:53;100501.06;;;6.58;59.76
69955;BME280;57279;55.912;37.490;2022-10-16T00:10:19;100506.66;;;6.63;60.51
69955;BME280;57279;55.912;37.490;2022-10-16T00:12:44;100496.09;;;6.61;59.77
69955;BME280;57279;55.912;37.490;2022-10-16T00:15:10;100503.13;;;6.62;59.63
69955;BME280;57279;55.912;37.490;2022-10-16T00:17:35;100510.78;;;6.59;59.71
69955;BME280;57279;55.912;37.490;2022-10-16T00:20:01;100507.06;;;6.53;60.44
69955;BME280;57279;55.912;37.490;2022-10-16T00:22:45;100511.81;;;6.51;60.23
69955;BME280;57279;55.912;37.490;2022-10-16T00:25:11;100516.13;;;6.45;59.83
69955;BME280;57279;55.912;37.490;2022-10-16T00:27:37;100511.38;;;6.48;60.91
69955;BME280;57279;55.912;37.490;2022-10-16T00:30:04;100516.31;;;6.44;60.47
69955;BME280;57279;55.912;37.490;2022-10-16T00:32:29;100511.78;;;6.44;60.40
69955;BME280;57279;55.912;37.490;2022-10-16T00:34:55;100513.00;;;6.49;60.96
69955;BME280;57279;55.912;37.490;2022-10-16T00:37:21;100517.16;;;6.51;60.71
69955;BME280;57279;55.912;37.490;2022-10-16T00:39:47;100517.16;;;6.51;60.14
69955;BME280;57279;55.912;37.490;2022-10-16T00:42:17;100520.47;;;6.53;60.78
69955;BME280;57279;55.912;37.490;2022-10-16T00:47:26;100522.09;;;6.54;60.74
69955;BME280;57279;55.912;37.490;2022-10-16T00:49:58;100519.19;;;6.49;60.69
69955;BME280;57279;55.912;37.490;2022-10-16T00:52:24;100518.81;;;6.45;60.87
69955;BME280;57279;55.912;37.490;2022-10-16T00:54:52;100518.59;;;6.40;60.50
69955;BME280;57279;55.912;37.490;2022-10-16T00:57:18;100528.50;;;6.40;60.48
69955;BME280;57279;55.912;37.490;2022-10-16T00:59:44;100526.63;;;6.40;61.07
69955;BME280;57279;55.912;37.490;2022-10-16T01:02:13;100531.81;;;6.42;60.83
69955;BME280;57279;55.912;37.490;2022-10-16T01:04:46;100526.84;;;6.39;61.02
69955;BME280;57279;55.912;37.490;2022-10-16T01:15:34;100531.16;;;6.33;60.81
69955;BME280;57279;55.912;37.490;2022-10-16T01:18:19;100535.50;;;6.34;61.51
69955;BME280;57279;55.912;37.490;2022-10-16T01:21:05;100523.31;;;6.32;61.10
69955;BME280;57279;55.912;37.490;2022-10-16T01:26:36;100532.78;;;6.28;60.79
69955;BME280;57279;55.912;37.490;2022-10-16T01:29:28;100538.56;;;6.31;61.15
69955;BME280;57279;55.912;37.490;2022-10-16T01:32:07;100538.16;;;6.28;61.11
69955;BME280;57279;55.912;37.490;2022-10-16T01:34:40;100540.44;;;6.31;61.18
69955;BME280;57279;55.912;37.490;2022-10-16T01:37:15;100537.75;;;6.31;61.11
69955;BME280;57279;55.912;37.490;2022-10-16T01:39:45;100546.81;;;6.30;60.99
69955;BME280;57279;55.912;37.490;2022-10-16T01:44:42;100540.84;;;6.28;61.23
69955;BME280;57279;55.912;37.490;2022-10-16T01:47:10;100538.16;;;6.28;61.41
69955;BME280;57279;55.912;37.490;2022-10-16T01:49:39;100541.88;;;6.26;61.50
69955;BME280;57279;55.912;37.490;2022-10-16T01:52:13;100548.88;;;6.28;61.11
69955;BME280;57279;55.912;37.490;2022-10-16T01:54:42;100549.69;;;6.28;61.33
69955;BME280;57279;55.912;37.490;2022-10-16T01:57:10;100550.94;;;6.25;60.71
69955;BME280;57279;55.912;37.490;2022-10-16T01:59:42;100545.16;;;6.22;61.59
69955;BME280;57279;55.912;37.490;2022-10-16T02:02:10;100547.00;;;6.21;61.80
69955;BME280;57279;55.912;37.490;2022-10-16T02:04:46;100545.56;;;6.25;62.08
69955;BME280;57279;55.912;37.490;2022-10-16T02:07:14;100538.97;;;6.21;61.84
69955;BME280;57279;55.912;37.490;2022-10-16T02:09:40;100541.03;;;6.19;61.46
69955;BME280;57279;55.912;37.490;2022-10-16T02:12:11;100542.03;;;6.18;61.55
69955;BME280;57279;55.912;37.490;2022-10-16T02:14:39;100546.41;;;6.19;61.45
69955;BME280;57279;55.912;37.490;2022-10-16T02:17:12;100553.63;;;6.19;61.42
69955;BME280;57279;55.912;37.490;2022-10-16T02:19:38;100554.00;;;6.16;61.65
69955;BME280;57279;55.912;37.490;2022-10-16T02:22:05;100550.09;;;6.12;62.04
69955;BME280;57279;55.912;37.490;2022-10-16T02:24:53;100555.03;;;6.08;61.95
69955;BME280;57279;55.912;37.490;2022-10-16T02:27:37;100549.22;;;6.04;61.94
69955;BME280;57279;55.912;37.490;2022-10-16T02:30:30;100545.91;;;6.02;61.97
69955;BME280;57279;55.912;37.490;2022-10-16T02:32:54;100556.84;;;6.01;61.60
69955;BME280;57279;55.912;37.490;2022-10-16T02:35:22;100556.03;;;6.00;61.85
69955;BME280;57279;55.912;37.490;2022-10-16T02:37:49;100556.22;;;5.99;61.70
69955;BME280;57279;55.912;37.490;2022-10-16T02:40:17;100561.38;;;6.00;61.73
69955;BME280;57279;55.912;37.490;2022-10-16T02:42:43;100559.31;;;6.02;61.92
69955;BME280;57279;55.912;37.490;2022-10-16T02:45:10;100565.66;;;5.95;61.94
69955;BME280;57279;55.912;37.490;2022-10-16T02:47:37;100556.81;;;5.94;62.16
69955;BME280;57279;55.912;37.490;2022-10-16T02:50:03;100558.00;;;5.92;61.51
69955;BME280;57279;55.912;37.490;2022-10-16T02:52:29;100563.16;;;5.93;62.20
69955;BME280;57279;55.912;37.490;2022-10-16T02:54:55;100562.34;;;5.93;62.12
69955;BME280;57279;55.912;37.490;2022-10-16T02:57:20;100567.09;;;5.91;61.76
69955;BME280;57279;55.912;37.490;2022-10-16T02:59:46;100561.31;;;5.94;62.34
69955;BME280;57279;55.912;37.490;2022-10-16T03:02:12;100564.41;;;5.91;61.63
69955;BME280;57279;55.912;37.490;2022-10-16T03:04:37;100567.28;;;5.89;61.86
69955;BME280;57279;55.912;37.490;2022-10-16T03:07:03;100577.38;;;5.87;62.10
69955;BME280;57279;55.912;37.490;2022-10-16T03:09:29;100574.28;;;5.90;62.58
69955;BME280;57279;55.912;37.490;2022-10-16T03:11:54;100576.56;;;5.93;61.81
69955;BME280;57279;55.912;37.490;2022-10-16T03:14:20;100569.78;;;5.91;61.81
69955;BME280;57279;55.912;37.490;2022-10-16T03:16:46;100575.75;;;5.93;62.63
69955;BME280;57279;55.912;37.490;2022-10-16T03:19:11;100574.56;;;5.95;62.03
69955;BME280;57279;55.912;37.490;2022-10-16T03:21:37;100576.38;;;5.95;61.79
69955;BME280;57279;55.912;37.490;2022-10-16T03:24:03;100582.97;;;5.92;62.10
69955;BME280;57279;55.912;37.490;2022-10-16T03:26:28;100578.81;;;5.90;62.45
69955;BME280;57279;55.912;37.490;2022-10-16T03:28:54;100584.59;;;5.86;62.39
69955;BME280;57279;55.912;37.490;2022-10-16T03:31:20;100586.25;;;5.87;62.47
69955;BME280;57279;55.912;37.490;2022-10-16T03:33:45;100587.47;;;5.85;62.87
69955;BME280;57279;55.912;37.490;2022-10-16T03:36:12;100583.53;;;5.81;62.57
69955;BME280;57279;55.912;37.490;2022-10-16T03:38:38;100595.72;;;5.83;62.77
69955;BME280;57279;55.912;37.490;2022-10-16T03:41:04;100592.41;;;5.81;63.24
69955;BME280;57279;55.912;37.490;2022-10-16T03:43:29;100589.91;;;5.80;63.21
69955;BME280;57279;55.912;37.490;2022-10-16T03:45:55;100589.09;;;5.79;62.78
69955;BME280;57279;55.912;37.490;2022-10-16T03:48:21;100587.84;;;5.75;63.11
69955;BME280;57279;55.912;37.490;2022-10-16T03:50:46;100587.41;;;5.78;63.07
69955;BME280;57279;55.912;37.490;2022-10-16T03:53:14;100593.63;;;5.79;62.94
69955;BME280;57279;55.912;37.490;2022-10-16T03:55:43;100593.63;;;5.79;62.98
69955;BME280;57279;55.912;37.490;2022-10-16T03:58:09;100594.44;;;5.79;63.08
69955;BME280;57279;55.912;37.490;2022-10-16T04:00:35;100594.25;;;5.81;63.22
69955;BME280;57279;55.912;37.490;2022-10-16T04:03:01;100590.97;;;5.79;63.14
69955;BME280;57279;55.912;37.490;2022-10-16T04:05:26;100588.06;;;5.80;62.91
69955;BME280;57279;55.912;37.490;2022-10-16T04:07:52;100592.78;;;5.78;63.00
69955;BME280;57279;55.912;37.490;2022-10-16T04:10:18;100591.72;;;5.73;62.70
69955;BME280;57279;55.912;37.490;2022-10-16T04:12:44;100596.25;;;5.72;62.75
69955;BME280;57279;55.912;37.490;2022-10-16T04:15:10;100594.41;;;5.73;62.99
69955;BME280;57279;55.912;37.490;2022-10-16T04:17:36;100595.25;;;5.73;63.45
69955;BME280;57279;55.912;37.490;2022-10-16T04:20:03;100592.97;;;5.77;62.88
69955;BME280;57279;55.912;37.490;2022-10-16T04:22:29;100586.38;;;5.73;62.97
69955;BME280;57279;55.912;37.490;2022-10-16T04:24:55;100595.25;;;5.73;63.17
69955;BME280;57279;55.912;37.490;2022-10-16T04:27:21;100593.97;;;5.69;63.25
69955;BME280;57279;55.912;37.490;2022-10-16T04:29:47;100593.78;;;5.71;63.21
69955;BME280;57279;55.912;37.490;2022-10-16T04:32:13;100596.25;;;5.72;63.14
69955;BME280;57279;55.912;37.490;2022-10-16T04:34:40;100602.25;;;5.74;63.13
69955;BME280;57279;55.912;37.490;2022-10-16T04:37:06;100599.00;;;5.79;63.19
69955;BME280;57279;55.912;37.490;2022-10-16T04:39:32;100601.03;;;5.77;63.54
69955;BME280;57279;55.912;37.490;2022-10-16T04:41:57;100604.53;;;5.77;63.26
69955;BME280;57279;55.912;37.490;2022-10-16T04:44:23;100604.75;;;5.82;63.31
69955;BME280;57279;55.912;37.490;2022-10-16T04:46:50;100601.69;;;5.85;63.16
69955;BME280;57279;55.912;37.490;2022-10-16T04:49:16;100615.34;;;5.91;63.10
69955;BME280;57279;55.912;37.490;2022-10-16T04:51:42;100611.41;;;5.93;62.72
69955;BME280;57279;55.912;37.490;2022-10-16T04:54:08;100614.09;;;5.93;62.87
69955;BME280;57279;55.912;37.490;2022-10-16T04:56:33;100618.06;;;5.97;62.56
69955;BME280;57279;55.912;37.490;2022-10-16T04:59:05;100613.34;;;5.99;62.67
69955;BME280;57279;55.912;37.490;2022-10-16T05:01:31;100613.75;;;6.03;62.43
69955;BME280;57279;55.912;37.490;2022-10-16T05:03:56;100617.28;;;6.03;62.67
69955;BME280;57279;55.912;37.490;2022-10-16T05:06:22;100619.38;;;6.08;62.54
69955;BME280;57279;55.912;37.490;2022-10-16T05:08:47;100618.56;;;6.14;62.91
69955;BME280;57279;55.912;37.490;2022-10-16T05:11:13;100612.75;;;6.04;61.69
69955;BME280;57279;55.912;37.490;2022-10-16T05:13:39;100612.34;;;6.07;62.76
69955;BME280;57279;55.912;37.490;2022-10-16T05:16:05;100621.84;;;6.10;62.08
69955;BME280;57279;55.912;37.490;2022-10-16T05:18:30;100618.75;;;6.13;62.31
69955;BME280;57279;55.912;37.490;2022-10-16T05:20:56;100615.50;;;6.17;62.03
69955;BME280;57279;55.912;37.490;2022-10-16T05:23:22;100627.47;;;6.21;62.51
69955;BME280;57279;55.912;37.490;2022-10-16T05:25:55;100624.41;;;6.31;61.79
69955;BME280;57279;55.912;37.490;2022-10-16T05:28:28;100627.31;;;6.36;61.89
69955;BME280;57279;55.912;37.490;2022-10-16T05:30:54;100631.44;;;6.39;61.31
69955;BME280;57279;55.912;37.490;2022-10-16T05:33:21;100634.97;;;6.39;61.40
69955;BME280;57279;55.912;37.490;2022-10-16T05:35:47;100636.84;;;6.45;61.57
69955;BME280;57279;55.912;37.490;2022-10-16T05:38:13;100632.75;;;6.50;61.43
69955;BME280;57279;55.912;37.490;2022-10-16T05:40:39;100624.25;;;6.53;61.21
69955;BME280;57279;55.912;37.490;2022-10-16T05:43:04;100634.59;;;6.56;61.42
69955;BME280;57279;55.912;37.490;2022-10-16T05:45:30;100626.97;;;6.59;60.89
69955;BME280;57279;55.912;37.490;2022-10-16T05:47:56;100636.91;;;6.65;60.57
69955;BME280;57279;55.912;37.490;2022-10-16T05:50:21;100641.44;;;6.65;60.73
69955;BME280;57279;55.912;37.490;2022-10-16T05:52:47;100639.00;;;6.70;59.88
69955;BME280;57279;55.912;37.490;2022-10-16T05:55:13;100641.88;;;6.75;60.30
69955;BME280;57279;55.912;37.490;2022-10-16T05:57:38;100641.28;;;6.80;60.54
69955;BME280;57279;55.912;37.490;2022-10-16T06:00:05;100639.63;;;6.85;60.02
69955;BME280;57279;55.912;37.490;2022-10-16T06:02:38;100648.50;;;6.93;59.84
69955;BME280;57279;55.912;37.490;2022-10-16T06:05:04;100644.41;;;6.97;59.76
69955;BME280;57279;55.912;37.490;2022-10-16T06:07:34;100633.88;;;7.02;59.98
69955;BME280;57279;55.912;37.490;2022-10-16T06:10:00;100644.00;;;7.07;59.35
69955;BME280;57279;55.912;37.490;2022-10-16T06:12:26;100644.00;;;7.13;60.02
69955;BME280;57279;55.912;37.490;2022-10-16T06:14:52;100639.44;;;7.14;59.06
69955;BME280;57279;55.912;37.490;2022-10-16T06:17:18;100639.88;;;7.17;58.92
69955;BME280;57279;55.912;37.490;2022-10-16T06:19:43;100639.44;;;7.07;58.41
69955;BME280;57279;55.912;37.490;2022-10-16T06:22:09;100637.38;;;7.09;58.64
69955;BME280;57279;55.912;37.490;2022-10-16T06:24:35;100633.06;;;7.15;59.42
69955;BME280;57279;55.912;37.490;2022-10-16T06:27:00;100640.06;;;7.22;58.90
69955;BME280;57279;55.912;37.490;2022-10-16T06:29:26;100644.41;;;7.30;58.41
69955;BME280;57279;55.912;37.490;2022-10-16T06:31:51;100634.28;;;7.32;58.34
69955;BME280;57279;55.912;37.490;2022-10-16T06:34:18;100641.75;;;7.37;59.17
69955;BME280;57279;55.912;37.490;2022-10-16T06:36:44;100636.34;;;7.43;58.92
69955;BME280;57279;55.912;37.490;2022-10-16T06:39:09;100645.44;;;7.49;58.51
69955;BME280;57279;55.912;37.490;2022-10-16T06:41:35;100651.03;;;7.54;58.65
69955;BME280;57279;55.912;37.490;2022-10-16T06:44:14;100646.88;;;7.58;58.32
69955;BME280;57279;55.912;37.490;2022-10-16T06:46:39;100645.03;;;7.59;57.87
69955;BME280;57279;55.912;37.490;2022-10-16T06:49:05;100654.50;;;7.61;57.91
69955;BME280;57279;55.912;37.490;2022-10-16T06:51:30;100652.47;;;7.63;58.37
69955;BME280;57279;55.912;37.490;2022-10-16T06:53:59;100651.44;;;7.64;58.02
69955;BME280;57279;55.912;37.490;2022-10-16T06:56:27;100645.03;;;7.66;57.56
69955;BME280;57279;55.912;37.490;2022-10-16T06:58:53;100655.34;;;7.75;57.48
69955;BME280;57279;55.912;37.490;2022-10-16T07:01:22;100651.19;;;7.79;57.46
69955;BME280;57279;55.912;37.490;2022-10-16T07:03:48;100659.06;;;7.81;57.54
69955;BME280;57279;55.912;37.490;2022-10-16T07:06:17;100654.91;;;7.85;57.50
69955;BME280;57279;55.912;37.490;2022-10-16T07:08:44;100653.66;;;7.88;57.62
69955;BME280;57279;55.912;37.490;2022-10-16T07:11:12;100655.72;;;7.86;57.44
69955;BME280;57279;55.912;37.490;2022-10-16T07:13:40;100655.94;;;7.84;57.43
69955;BME280;57279;55.912;37.490;2022-10-16T07:16:14;100658.41;;;7.92;57.95
69955;BME280;57279;55.912;37.490;2022-10-16T07:18:41;100656.13;;;7.96;57.63
69955;BME280;57279;55.912;37.490;2022-10-16T07:21:16;100653.81;;;7.99;57.36
69955;BME280;57279;55.912;37.490;2022-10-16T07:23:42;100653.22;;;8.04;56.93
69955;BME280;57279;55.912;37.490;2022-10-16T07:26:08;100652.56;;;8.09;56.77
69955;BME280;57279;55.912;37.490;2022-10-16T07:28:34;100657.13;;;8.15;57.24
69955;BME280;57279;55.912;37.490;2022-10-16T07:31:10;100656.06;;;8.22;57.23
69955;BME280;57279;55.912;37.490;2022-10-16T07:33:37;100660.78;;;8.27;56.75
69955;BME280;57279;55.912;37.490;2022-10-16T07:36:04;100662.22;;;8.30;56.88
69955;BME280;57279;55.912;37.490;2022-10-16T07:38:29;100657.84;;;8.35;56.75
69955;BME280;57279;55.912;37.490;2022-10-16T07:41:00;100666.38;;;8.32;56.28
69955;BME280;57279;55.912;37.490;2022-10-16T07:43:27;100662.63;;;8.33;56.56
69955;BME280;57279;55.912;37.490;2022-10-16T07:45:53;100659.50;;;8.36;56.34
69955;BME280;57279;55.912;37.490;2022-10-16T07:48:21;100663.63;;;8.39;56.10
69955;BME280;57279;55.912;37.490;2022-10-16T07:50:47;100664.91;;;8.36;56.07
69955;BME280;57279;55.912;37.490;2022-10-16T07:53:13;100665.72;;;8.44;56.73
69955;BME280;57279;55.912;37.490;2022-10-16T07:55:39;100663.22;;;8.49;56.37
69955;BME280;57279;55.912;37.490;2022-10-16T07:58:05;100670.81;;;8.58;56.79
69955;BME280;57279;55.912;37.490;2022-10-16T08:00:30;100667.28;;;8.65;55.83
69955;BME280;57279;55.912;37.490;2022-10-16T08:02:59;100666.22;;;8.72;56.14
69955;BME280;57279;55.912;37.490;2022-10-16T08:05:29;100670.34;;;8.75;56.01
69955;BME280;57279;55.912;37.490;2022-10-16T08:07:56;100673.22;;;8.80;55.77
69955;BME280;57279;55.912;37.490;2022-10-16T08:10:24;100674.22;;;8.86;55.98
69955;BME280;57279;55.912;37.490;2022-10-16T08:12:51;100664.66;;;8.90;55.47
69955;BME280;57279;55.912;37.490;2022-10-16T08:15:18;100668.56;;;8.94;55.42
69955;BME280;57279;55.912;37.490;2022-10-16T08:17:44;100665.06;;;8.93;55.30
69955;BME280;57279;55.912;37.490;2022-10-16T08:20:09;100663.78;;;8.96;55.28
69955;BME280;57279;55.912;37.490;2022-10-16T08:22:35;100663.38;;;8.99;55.99
69955;BME280;57279;55.912;37.490;2022-10-16T08:25:00;100657.13;;;8.98;55.02
69955;BME280;57279;55.912;37.490;2022-10-16T08:27:34;100656.09;;;8.99;54.89
69955;BME280;57279;55.912;37.490;2022-10-16T08:29:59;100661.88;;;9.03;54.84
69955;BME280;57279;55.912;37.490;2022-10-16T08:32:25;100657.09;;;9.05;54.60
69955;BME280;57279;55.912;37.490;2022-10-16T08:34:50;100660.41;;;9.07;54.76
69955;BME280;57279;55.912;37.490;2022-10-16T08:37:16;100654.78;;;9.09;54.40
69955;BME280;57279;55.912;37.490;2022-10-16T08:39:42;100658.31;;;9.09;54.17
69955;BME280;57279;55.912;37.490;2022-10-16T08:42:25;100660.78;;;9.11;54.14
69955;BME280;57279;55.912;37.490;2022-10-16T08:50:08;100656.41;;;9.16;54.36
69955;BME280;57279;55.912;37.490;2022-10-16T08:52:38;100658.03;;;9.17;53.58
69955;BME280;57279;55.912;37.490;2022-10-16T08:55:05;100647.66;;;9.21;53.87
69955;BME280;57279;55.912;37.490;2022-10-16T08:57:30;100651.00;;;9.16;53.05
69955;BME280;57279;55.912;37.490;2022-10-16T09:00:05;100647.44;;;9.23;53.16
69955;BME280;57279;55.912;37.490;2022-10-16T09:02:37;100657.59;;;9.20;53.26
69955;BME280;57279;55.912;37.490;2022-10-16T09:05:15;100661.28;;;9.26;53.49
69955;BME280;57279;55.912;37.490;2022-10-16T09:07:54;100650.09;;;9.29;53.22
69955;BME280;57279;55.912;37.490;2022-10-16T09:13:23;100654.88;;;9.52;53.44
69955;BME280;57279;55.912;37.490;2022-10-16T09:15:58;100657.88;;;9.63;53.24
69955;BME280;57279;55.912;37.490;2022-10-16T09:18:35;100647.03;;;9.69;53.11
69955;BME280;57279;55.912;37.490;2022-10-16T09:23:37;100645.75;;;9.72;52.67
69955;BME280;57279;55.912;37.490;2022-10-16T09:26:04;100650.59;;;9.63;51.72
69955;BME280;57279;55.912;37.490;2022-10-16T09:28:30;100642.25;;;9.71;51.55
69955;BME280;57279;55.912;37.490;2022-10-16T09:30:56;100645.16;;;9.70;51.76
69955;BME280;57279;55.912;37.490;2022-10-16T09:33:32;100647.94;;;9.82;52.10
69955;BME280;57279;55.912;37.490;2022-10-16T09:35:59;100642.25;;;9.90;51.09
69955;BME280;57279;55.912;37.490;2022-10-16T09:40:55;100640.53;;;9.95;50.62
69955;BME280;57279;55.912;37.490;2022-10-16T09:45:54;100633.56;;;10.06;51.05
69955;BME280;57279;55.912;37.490;2022-10-16T09:48:20;100626.00;;;10.15;50.86
69955;BME280;57279;55.912;37.490;2022-10-16T09:50:56;100634.81;;;10.22;50.45
69955;BME280;57279;55.912;37.490;2022-10-16T09:53:22;100625.00;;;10.28;50.60
69955;BME280;57279;55.912;37.490;2022-10-16T09:55:48;100624.13;;;10.34;50.55
69955;BME280;57279;55.912;37.490;2022-10-16T09:58:14;100631.31;;;10.40;49.80
69955;BME280;57279;55.912;37.490;2022-10-16T10:00:41;100623.81;;;10.42;49.56
69955;BME280;57279;55.912;37.490;2022-10-16T10:03:10;100631.22;;;10.47;49.70
69955;BME280;57279;55.912;37.490;2022-10-16T10:05:39;100623.28;;;10.52;49.45
69955;BME280;57279;55.912;37.490;2022-10-16T10:08:05;100617.66;;;10.53;49.26
69955;BME280;57279;55.912;37.490;2022-10-16T10:10:42;100616.72;;;10.60;49.71
69955;BME280;57279;55.912;37.490;2022-10-16T10:13:20;100618.06;;;10.69;49.23
69955;BME280;57279;55.912;37.490;2022-10-16T10:15:46;100622.16;;;10.71;48.34
69955;BME280;57279;55.912;37.490;2022-10-16T10:18:15;100625.22;;;10.75;48.32
69955;BME280;57279;55.912;37.490;2022-10-16T10:20:42;100621.50;;;10.76;48.32
69955;BME280;57279;55.912;37.490;2022-10-16T10:23:23;100613.50;;;10.81;48.18
69955;BME280;57279;55.912;37.490;2022-10-16T10:26:06;100609.31;;;10.85;47.81
69955;BME280;57279;55.912;37.490;2022-10-16T10:31:35;100618.38;;;11.03;48.09
69955;BME280;57279;55.912;37.490;2022-10-16T10:36:39;100612.78;;;11.16;46.98
69955;BME280;57279;55.912;37.490;2022-10-16T10:39:13;100608.41;;;11.15;46.84
69955;BME280;57279;55.912;37.490;2022-10-16T10:46:56;100599.47;;;11.26;46.58
69955;BME280;57279;55.912;37.490;2022-10-16T10:54:54;100593.38;;;11.54;47.17
69955;BME280;57279;55.912;37.490;2022-10-16T11:00:51;100590.06;;;11.76;46.66
69955;BME280;57279;55.912;37.490;2022-10-16T11:05:52;100597.94;;;11.89;46.34
69955;BME280;57279;55.912;37.490;2022-10-16T11:08:28;100605.38;;;11.94;46.15
69955;BME280;57279;55.912;37.490;2022-10-16T11:11:03;100598.06;;;11.95;45.45
69955;BME280;57279;55.912;37.490;2022-10-16T11:13:55;100589.94;;;11.95;45.37
69955;BME280;57279;55.912;37.490;2022-10-16T11:16:28;100593.81;;;11.99;45.50
69955;BME280;57279;55.912;37.490;2022-10-16T11:21:43;100597.56;;;12.09;45.78
69955;BME280;57279;55.912;37.490;2022-10-16T11:24:23;100595.09;;;12.08;44.70
69955;BME280;57279;55.912;37.490;2022-10-16T11:26:52;100590.03;;;12.11;45.34
69955;BME280;57279;55.912;37.490;2022-10-16T11:29:30;100583.06;;;12.16;45.27
69955;BME280;57279;55.912;37.490;2022-10-16T11:32:01;100592.59;;;12.18;45.29
69955;BME280;57279;55.912;37.490;2022-10-16T11:34:50;100591.34;;;12.09;44.80
69955;BME280;57279;55.912;37.490;2022-10-16T11:37:21;100590.72;;;12.07;45.21
69955;BME280;57279;55.912;37.490;2022-10-16T11:39:50;100582.97;;;12.10;45.71
69955;BME280;57279;55.912;37.490;2022-10-16T11:42:40;100586.75;;;12.09;45.20
69955;BME280;57279;55.912;37.490;2022-10-16T11:45:20;100581.41;;;12.15;45.29
69955;BME280;57279;55.912;37.490;2022-10-16T11:48:11;100585.88;;;12.21;45.11
69955;BME280;57279;55.912;37.490;2022-10-16T11:53:42;100570.69;;;12.20;45.12
69955;BME280;57279;55.912;37.490;2022-10-16T11:56:16;100582.69;;;12.24;45.29
69955;BME280;57279;55.912;37.490;2022-10-16T11:58:52;100589.75;;;12.25;44.90
69955;BME280;57279;55.912;37.490;2022-10-16T12:04:02;100591.06;;;12.22;44.67
69955;BME280;57279;55.912;37.490;2022-10-16T12:06:36;100587.75;;;12.20;44.73
69955;BME280;57279;55.912;37.490;2022-10-16T12:09:03;100590.59;;;12.13;44.81
69955;BME280;57279;55.912;37.490;2022-10-16T12:16:38;100575.19;;;12.14;44.88
69955;BME280;57279;55.912;37.490;2022-10-16T12:19:12;100579.41;;;12.22;44.93
69955;BME280;57279;55.912;37.490;2022-10-16T12:21:38;100576.34;;;12.18;44.71
69955;BME280;57279;55.912;37.490;2022-10-16T12:24:04;100564.13;;;12.16;44.68
69955;BME280;57279;55.912;37.490;2022-10-16T12:26:49;100573.91;;;12.17;44.87
69955;BME280;57279;55.912;37.490;2022-10-16T12:31:55;100569.06;;;12.07;44.81
69955;BME280;57279;55.912;37.490;2022-10-16T12:34:41;100566.06;;;12.03;44.51
69955;BME280;57279;55.912;37.490;2022-10-16T12:39:46;100562.16;;;11.99;45.01
69955;BME280;57279;55.912;37.490;2022-10-16T12:44:55;100567.00;;;11.97;45.82
69955;BME280;57279;55.912;37.490;2022-10-16T12:47:47;100559.44;;;11.99;45.96
69955;BME280;57279;55.912;37.490;2022-10-16T12:50:36;100560.03;;;12.01;45.60
69955;BME280;57279;55.912;37.490;2022-10-16T12:53:17;100562.66;;;11.96;45.22
69955;BME280;57279;55.912;37.490;2022-10-16T13:00:57;100558.19;;;11.78;45.46
69955;BME280;57279;55.912;37.490;2022-10-16T13:06:50;100553.34;;;11.80;45.84
69955;BME280;57279;55.912;37.490;2022-10-16T13:09:41;100554.06;;;11.76;45.63
69955;BME280;57279;55.912;37.490;2022-10-16T13:17:40;100562.06;;;11.70;46.06
69955;BME280;57279;55.912;37.490;2022-10-16T13:23:08;100557.25;;;11.72;46.17
69955;BME280;57279;55.912;37.490;2022-10-16T13:28:33;100551.59;;;11.74;46.15
69955;BME280;57279;55.912;37.490;2022-10-16T13:31:01;100555.38;;;11.73;45.94
69955;BME280;57279;55.912;37.490;2022-10-16T13:33:41;100558.31;;;11.71;46.37
69955;BME280;57279;55.912;37.490;2022-10-16T13:36:19;100552.69;;;11.73;46.48
69955;BME280;57279;55.912;37.490;2022-10-16T13:38:45;100552.41;;;11.74;46.52
69955;BME280;57279;55.912;37.490;2022-10-16T13:41:16;100549.38;;;11.71;46.32
69955;BME280;57279;55.912;37.490;2022-10-16T13:43:45;100550.66;;;11.68;46.76
69955;BME280;57279;55.912;37.490;2022-10-16T13:46:13;100557.03;;;11.62;46.70
69955;BME280;57279;55.912;37.490;2022-10-16T13:48:40;100552.44;;;11.63;46.86
69955;BME280;57279;55.912;37.490;2022-10-16T13:51:07;100554.34;;;11.62;46.69
69955;BME280;57279;55.912;37.490;2022-10-16T13:53:37;100551.63;;;11.62;47.91
69955;BME280;57279;55.912;37.490;2022-10-16T13:56:05;100544.31;;;11.63;47.96
69955;BME280;57279;55.912;37.490;2022-10-16T13:58:31;100552.44;;;11.63;48.12
69955;BME280;57279;55.912;37.490;2022-10-16T14:01:03;100549.16;;;11.61;47.17
69955;BME280;57279;55.912;37.490;2022-10-16T14:03:30;100549.03;;;11.55;47.42
69955;BME280;57279;55.912;37.490;2022-10-16T14:06:00;100544.56;;;11.49;47.30
69955;BME280;57279;55.912;37.490;2022-10-16T14:08:27;100543.75;;;11.49;47.69
69955;BME280;57279;55.912;37.490;2022-10-16T14:10:56;100545.88;;;11.47;47.68
69955;BME280;57279;55.912;37.490;2022-10-16T14:13:45;100549.91;;;11.44;47.63
69955;BME280;57279;55.912;37.490;2022-10-16T14:16:18;100537.28;;;11.38;47.84
69955;BME280;57279;55.912;37.490;2022-10-16T14:18:52;100540.38;;;11.30;47.91
69955;BME280;57279;55.912;37.490;2022-10-16T14:21:20;100551.63;;;11.27;48.01
69955;BME280;57279;55.912;37.490;2022-10-16T14:23:46;100552.47;;;11.27;48.11
69955;BME280;57279;55.912;37.490;2022-10-16T14:26:14;100550.00;;;11.26;48.32
69955;BME280;57279;55.912;37.490;2022-10-16T14:28:40;100542.13;;;11.24;48.62
69955;BME280;57279;55.912;37.490;2022-10-16T14:33:45;100548.47;;;11.18;48.54
69955;BME280;57279;55.912;37.490;2022-10-16T14:36:12;100547.91;;;11.16;49.11